Time;durP1;ratioP1;P1;durP2;ratioP2;P2;SDS_P1;SDS_P2;PMS_P1;PMS_P2;Temp;Humidity;BMP_temperature;BMP_pressure;BME280_temperature;BME280_humidity;BME280_pressure;Samples;Min_cycle;Max_cycle;Signal;HPM_P1;HPM_P2
2022/04/16 00:00:00;;;;;;;9.68;6.30;;;;;;;;;;5014847;28;20037;-72
2022/04/16 00:02:29;;;;;;;11.02;6.22;;;;;;;;;;5015586;28;20014;-71
2022/04/16 00:04:55;;;;;;;7.35;5.25;;;;;;;;;;5015116;28;20037;-71
2022/04/16 00:07:21;;;;;;;7.60;5.35;;;;;;;;;;5018197;28;20095;-71
2022/04/16 00:09:47;;;;;;;11.23;5.75;;;;;;;;;;5015829;28;20022;-72
2022/04/16 00:12:13;;;;;;;8.02;5.47;;;;;;;;;;5018640;28;20404;-73
2022/04/16 00:14:39;;;;;;;9.60;5.00;;;;;;;;;;5013039;28;20033;-73
2022/04/16 00:17:06;;;;;;;6.80;4.90;;;;;;;;;;5014759;28;20429;-72
2022/04/16 00:19:33;;;;;;;6.80;4.85;;;;;;;;;;5016632;28;20095;-73
2022/04/16 00:22:00;;;;;;;6.97;5.07;;;;;;;;;;5018537;28;20109;-74
2022/04/16 00:24:29;;;;;;;5.78;4.45;;;;;;;;;;5006848;28;20030;-72
2022/04/16 00:26:56;;;;;;;8.38;4.50;;;;;;;;;;5016752;28;20179;-73
2022/04/16 00:29:22;;;;;;;8.05;5.35;;;;;;;;;;5016297;28;20473;-73
2022/04/16 00:31:48;;;;;;;7.15;4.70;;;;;;;;;;5011908;28;20106;-73
2022/04/16 00:34:14;;;;;;;6.55;4.50;;;;;;;;;;5014870;28;20026;-72
2022/04/16 00:36:44;;;;;;;7.45;4.72;;;;;;;;;;5019615;28;20037;-72
2022/04/16 00:39:11;;;;;;;8.15;5.25;;;;;;;;;;5004877;28;20077;-73
2022/04/16 00:41:39;;;;;;;8.60;5.40;;;;;;;;;;5011244;28;20048;-74
2022/04/16 00:44:06;;;;;;;8.70;5.05;;;;;;;;;;5016877;28;20034;-73
2022/04/16 00:46:32;;;;;;;7.95;5.53;;;;;;;;;;5006866;28;20517;-74
2022/04/16 00:48:59;;;;;;;9.43;5.97;;;;;;;;;;5022124;28;20548;-73
2022/04/16 00:51:25;;;;;;;11.13;6.00;;;;;;;;;;5021236;28;20083;-74
2022/04/16 00:53:52;;;;;;;8.20;6.05;;;;;;;;;;5021344;28;20115;-73
2022/04/16 00:56:18;;;;;;;9.52;5.70;;;;;;;;;;5011425;28;20358;-73
2022/04/16 00:58:46;;;;;;;7.47;5.07;;;;;;;;;;5009486;28;20121;-73
2022/04/16 01:01:13;;;;;;;9.85;5.43;;;;;;;;;;5012858;28;20125;-73
2022/04/16 01:03:43;;;;;;;8.82;5.00;;;;;;;;;;5020529;28;20028;-73
2022/04/16 01:06:14;;;;;;;7.05;4.63;;;;;;;;;;5020436;28;20029;-74
2022/04/16 01:08:42;;;;;;;7.90;4.60;;;;;;;;;;5012079;28;20025;-74
2022/04/16 01:11:08;;;;;;;7.85;4.85;;;;;;;;;;5024791;28;20037;-73
2022/04/16 01:13:36;;;;;;;4.57;4.07;;;;;;;;;;5022998;28;20103;-74
2022/04/16 01:16:03;;;;;;;5.60;3.97;;;;;;;;;;5013234;28;20062;-74
2022/04/16 01:18:29;;;;;;;5.93;4.60;;;;;;;;;;5015297;28;20034;-74
2022/04/16 01:20:55;;;;;;;8.60;4.65;;;;;;;;;;5009263;28;20053;-74
2022/04/16 01:23:21;;;;;;;7.10;4.35;;;;;;;;;;5014854;28;20073;-74
2022/04/16 01:25:47;;;;;;;6.40;4.18;;;;;;;;;;5015029;28;20017;-73
2022/04/16 01:28:14;;;;;;;6.80;4.93;;;;;;;;;;5012454;28;20029;-74
2022/04/16 01:30:40;;;;;;;6.43;4.32;;;;;;;;;;5017441;28;20030;-73
2022/04/16 01:33:06;;;;;;;5.80;4.38;;;;;;;;;;5016394;28;20671;-73
2022/04/16 01:35:33;;;;;;;6.45;4.20;;;;;;;;;;5012474;28;20506;-74
2022/04/16 01:37:59;;;;;;;7.28;4.25;;;;;;;;;;5013010;28;20022;-74
2022/04/16 01:40:25;;;;;;;5.20;3.88;;;;;;;;;;5019435;28;20040;-73
2022/04/16 01:42:56;;;;;;;7.00;4.38;;;;;;;;;;5013370;28;20133;-73
2022/04/16 01:45:23;;;;;;;9.73;4.80;;;;;;;;;;5012816;28;20034;-74
2022/04/16 01:47:50;;;;;;;5.97;4.18;;;;;;;;;;5012680;28;20060;-73
2022/04/16 01:50:18;;;;;;;5.50;3.70;;;;;;;;;;5010926;28;21041;-74
2022/04/16 01:52:44;;;;;;;6.07;3.70;;;;;;;;;;5014459;28;20044;-73
2022/04/16 01:55:12;;;;;;;7.53;4.28;;;;;;;;;;5006254;28;20088;-73
2022/04/16 01:57:38;;;;;;;7.95;3.85;;;;;;;;;;5006200;28;20040;-73
2022/04/16 02:00:09;;;;;;;6.55;4.00;;;;;;;;;;5011845;28;20033;-73
2022/04/16 02:02:36;;;;;;;7.43;4.00;;;;;;;;;;5005003;28;20029;-74
2022/04/16 02:05:03;;;;;;;5.72;4.25;;;;;;;;;;5014927;28;20036;-73
2022/04/16 02:07:29;;;;;;;7.20;3.92;;;;;;;;;;5042428;28;20029;-75
2022/04/16 02:09:56;;;;;;;7.22;4.40;;;;;;;;;;5022277;28;20053;-74
2022/04/16 02:12:22;;;;;;;6.53;4.00;;;;;;;;;;5013293;28;20022;-73
2022/04/16 02:14:48;;;;;;;7.07;4.30;;;;;;;;;;5010619;28;20041;-73
2022/04/16 02:17:14;;;;;;;5.97;4.05;;;;;;;;;;5015558;28;20112;-73
2022/04/16 02:19:41;;;;;;;8.85;4.15;;;;;;;;;;5010850;28;20045;-74
2022/04/16 02:22:07;;;;;;;8.73;4.85;;;;;;;;;;5023221;28;20022;-73
2022/04/16 02:24:34;;;;;;;5.40;4.68;;;;;;;;;;5022461;28;20397;-73
2022/04/16 02:27:00;;;;;;;5.50;4.40;;;;;;;;;;5026804;28;20090;-74
2022/04/16 02:29:26;;;;;;;6.60;4.78;;;;;;;;;;5016893;28;20494;-73
2022/04/16 02:31:53;;;;;;;7.07;4.90;;;;;;;;;;5014727;28;20022;-77
2022/04/16 02:34:20;;;;;;;7.38;4.22;;;;;;;;;;5017088;28;20038;-74
2022/04/16 02:36:47;;;;;;;8.88;4.45;;;;;;;;;;5017482;28;20025;-77
2022/04/16 02:39:14;;;;;;;6.53;4.70;;;;;;;;;;5013811;28;20060;-75
2022/04/16 02:41:41;;;;;;;9.48;6.75;;;;;;;;;;5022609;28;20465;-73
2022/04/16 02:47:04;;;;;;;13.98;7.32;;;;;;;;;;5021334;28;20113;-74
2022/04/16 02:47:05;;;;;;;10.77;6.60;;;;;;;;;;5014920;28;20156;-73
2022/04/16 02:49:31;;;;;;;11.93;7.35;;;;;;;;;;5006490;28;20034;-76
2022/04/16 02:51:57;;;;;;;9.65;6.75;;;;;;;;;;5014436;28;20040;-73
2022/04/16 02:54:25;;;;;;;12.07;6.75;;;;;;;;;;5016725;28;20038;-73
2022/04/16 02:56:51;;;;;;;11.13;6.15;;;;;;;;;;5022937;28;20037;-73
2022/04/16 02:59:17;;;;;;;10.25;6.72;;;;;;;;;;5018335;28;20083;-74
2022/04/16 03:01:43;;;;;;;11.10;8.32;;;;;;;;;;5011818;28;20030;-73
2022/04/16 03:04:09;;;;;;;13.85;9.13;;;;;;;;;;5017444;28;20036;-75
2022/04/16 03:06:37;;;;;;;15.82;9.73;;;;;;;;;;5013471;28;20108;-75
2022/04/16 03:09:03;;;;;;;15.95;11.23;;;;;;;;;;5010500;28;20030;-75
2022/04/16 03:11:29;;;;;;;17.13;11.05;;;;;;;;;;5011340;28;20022;-74
2022/04/16 03:13:55;;;;;;;16.10;9.90;;;;;;;;;;5019743;28;20525;-74
2022/04/16 03:19:06;;;;;;;11.75;6.68;;;;;;;;;;5001894;28;20127;-73
2022/04/16 03:21:33;;;;;;;12.48;6.95;;;;;;;;;;5001329;28;20110;-72
2022/04/16 03:23:59;;;;;;;9.73;6.50;;;;;;;;;;4999363;28;20109;-73
2022/04/16 03:26:25;;;;;;;9.05;6.68;;;;;;;;;;5000834;28;20025;-72
2022/04/16 03:28:51;;;;;;;7.30;6.45;;;;;;;;;;5004242;28;20063;-72
2022/04/16 03:31:17;;;;;;;9.25;5.38;;;;;;;;;;5020330;28;20102;-73
2022/04/16 03:33:43;;;;;;;8.73;5.40;;;;;;;;;;5018947;28;20400;-72
2022/04/16 03:36:10;;;;;;;9.15;5.60;;;;;;;;;;5020326;28;20038;-72
2022/04/16 03:38:36;;;;;;;8.00;5.80;;;;;;;;;;5020022;28;20091;-72
2022/04/16 03:41:02;;;;;;;10.00;6.13;;;;;;;;;;5020148;28;20058;-72
2022/04/16 03:43:29;;;;;;;9.00;6.50;;;;;;;;;;5020341;28;20080;-72
2022/04/16 03:45:56;;;;;;;8.35;4.85;;;;;;;;;;5019003;28;20041;-73
2022/04/16 03:48:22;;;;;;;6.95;4.60;;;;;;;;;;5018660;28;20022;-72
2022/04/16 03:50:48;;;;;;;7.07;4.90;;;;;;;;;;5020246;28;20044;-75
2022/04/16 03:53:14;;;;;;;7.32;4.63;;;;;;;;;;5018955;28;20402;-72
2022/04/16 04:01:10;;;;;;;5.13;4.13;;;;;;;;;;5011244;28;20048;-73
2022/04/16 04:03:36;;;;;;;6.60;4.28;;;;;;;;;;5000122;28;20026;-73
2022/04/16 04:06:03;;;;;;;6.95;4.40;;;;;;;;;;5000187;28;20037;-72
2022/04/16 04:08:29;;;;;;;7.45;4.47;;;;;;;;;;4999002;28;20040;-72
2022/04/16 04:10:55;;;;;;;6.07;4.18;;;;;;;;;;5000579;28;20022;-71
2022/04/16 04:13:23;;;;;;;7.43;4.20;;;;;;;;;;5000496;28;20026;-72
2022/04/16 04:15:50;;;;;;;7.22;4.20;;;;;;;;;;4999927;28;20077;-72
2022/04/16 04:18:16;;;;;;;6.50;3.97;;;;;;;;;;4999268;28;20072;-72
2022/04/16 04:20:42;;;;;;;6.45;4.20;;;;;;;;;;4999941;28;20582;-72
2022/04/16 04:23:09;;;;;;;7.40;4.40;;;;;;;;;;4999713;28;20037;-72
2022/04/16 04:25:35;;;;;;;6.88;4.88;;;;;;;;;;5018661;28;20112;-72
2022/04/16 04:28:01;;;;;;;5.93;4.30;;;;;;;;;;5003454;28;20026;-72
2022/04/16 04:30:29;;;;;;;7.70;3.80;;;;;;;;;;5004827;28;20032;-72
2022/04/16 04:32:57;;;;;;;6.93;4.13;;;;;;;;;;5013332;28;20120;-73
2022/04/16 04:35:23;;;;;;;5.38;3.90;;;;;;;;;;5007530;28;20102;-73
2022/04/16 04:37:49;;;;;;;5.20;3.97;;;;;;;;;;5018619;28;20029;-74
2022/04/16 04:40:16;;;;;;;9.07;4.55;;;;;;;;;;5006827;28;20605;-73
2022/04/16 04:42:42;;;;;;;7.15;4.38;;;;;;;;;;4999553;28;20030;-72
2022/04/16 04:45:12;;;;;;;7.15;4.18;;;;;;;;;;4998534;28;20109;-73
2022/04/16 04:47:38;;;;;;;10.38;4.43;;;;;;;;;;5000807;28;20036;-72
2022/04/16 04:50:05;;;;;;;6.55;4.30;;;;;;;;;;5021208;28;20038;-72
2022/04/16 04:52:31;;;;;;;9.63;5.38;;;;;;;;;;5023841;28;20029;-73
2022/04/16 04:54:58;;;;;;;9.15;5.68;;;;;;;;;;5013157;28;20474;-74
2022/04/16 04:57:24;;;;;;;8.27;5.05;;;;;;;;;;5002855;28;20038;-73
2022/04/16 04:59:50;;;;;;;7.22;4.18;;;;;;;;;;5014427;28;20041;-73
2022/04/16 05:02:17;;;;;;;8.45;4.60;;;;;;;;;;5037550;28;20094;-73
2022/04/16 05:04:43;;;;;;;7.45;4.28;;;;;;;;;;5027429;28;20045;-73
2022/04/16 05:07:09;;;;;;;8.40;4.50;;;;;;;;;;5037979;28;20036;-72
2022/04/16 05:09:36;;;;;;;6.53;4.13;;;;;;;;;;5039459;28;20115;-72
2022/04/16 05:12:02;;;;;;;7.80;4.55;;;;;;;;;;5040523;28;20062;-75
2022/04/16 05:14:28;;;;;;;6.72;4.43;;;;;;;;;;5041282;28;20025;-72
2022/04/16 05:16:54;;;;;;;9.00;4.47;;;;;;;;;;5037050;28;20040;-72
2022/04/16 05:19:20;;;;;;;7.25;4.55;;;;;;;;;;5019906;28;20128;-72
2022/04/16 05:21:46;;;;;;;5.20;3.90;;;;;;;;;;5011888;28;20485;-72
2022/04/16 05:24:13;;;;;;;7.40;4.03;;;;;;;;;;5008639;28;20029;-73
2022/04/16 05:26:39;;;;;;;6.35;3.90;;;;;;;;;;5002765;28;20049;-73
2022/04/16 05:29:06;;;;;;;6.20;4.15;;;;;;;;;;5029347;28;20033;-72
2022/04/16 05:31:32;;;;;;;6.28;3.92;;;;;;;;;;5038395;28;20044;-72
2022/04/16 05:36:43;;;;;;;5.22;3.92;;;;;;;;;;5022076;28;20117;-73
2022/04/16 05:39:10;;;;;;;5.45;3.88;;;;;;;;;;5020220;28;20285;-72
2022/04/16 05:41:39;;;;;;;9.93;4.80;;;;;;;;;;5016358;28;20516;-73
2022/04/16 05:44:05;;;;;;;12.27;4.53;;;;;;;;;;5011744;28;20030;-72
2022/04/16 05:46:32;;;;;;;7.20;4.55;;;;;;;;;;5003269;28;20040;-72
2022/04/16 05:48:58;;;;;;;26.52;5.30;;;;;;;;;;5009302;28;20371;-73
2022/04/16 05:51:25;;;;;;;17.40;5.05;;;;;;;;;;5000720;28;20835;-73
2022/04/16 05:53:52;;;;;;;12.10;4.55;;;;;;;;;;5013506;28;20026;-73
2022/04/16 05:56:19;;;;;;;10.40;4.60;;;;;;;;;;5012124;28;20505;-73
2022/04/16 05:58:45;;;;;;;8.55;4.13;;;;;;;;;;5009054;28;20053;-75
2022/04/16 06:01:12;;;;;;;7.15;4.40;;;;;;;;;;5009983;28;20612;-74
2022/04/16 06:03:42;;;;;;;15.95;4.97;;;;;;;;;;5012253;28;20134;-73
2022/04/16 06:06:08;;;;;;;6.10;4.28;;;;;;;;;;5012496;28;20033;-74
2022/04/16 06:08:35;;;;;;;7.47;3.92;;;;;;;;;;5013795;28;20048;-73
2022/04/16 06:11:01;;;;;;;5.63;3.80;;;;;;;;;;5013254;28;20037;-75
2022/04/16 06:13:30;;;;;;;9.43;4.38;;;;;;;;;;5013295;28;20030;-76
2022/04/16 06:15:56;;;;;;;7.18;4.20;;;;;;;;;;5028350;28;20096;-74
2022/04/16 06:18:22;;;;;;;6.57;4.43;;;;;;;;;;5011899;28;20664;-74
2022/04/16 06:20:48;;;;;;;8.02;4.47;;;;;;;;;;5011142;28;20033;-72
2022/04/16 06:23:14;;;;;;;7.03;4.55;;;;;;;;;;5020307;28;20025;-77
2022/04/16 06:25:40;;;;;;;11.55;4.75;;;;;;;;;;5018062;28;20038;-74
2022/04/16 06:28:07;;;;;;;11.27;5.90;;;;;;;;;;5021954;28;20029;-72
2022/04/16 06:30:33;;;;;;;9.20;5.50;;;;;;;;;;5020359;28;20028;-73
2022/04/16 06:32:59;;;;;;;11.75;5.88;;;;;;;;;;5020885;28;20025;-73
2022/04/16 06:35:25;;;;;;;10.38;5.50;;;;;;;;;;5008225;28;20554;-72
2022/04/16 06:37:52;;;;;;;9.63;6.00;;;;;;;;;;5019932;28;20036;-72
2022/04/16 06:40:18;;;;;;;8.55;6.45;;;;;;;;;;5018802;28;20041;-72
2022/04/16 06:42:44;;;;;;;14.30;6.82;;;;;;;;;;5017330;28;20064;-72
2022/04/16 06:45:11;;;;;;;9.65;6.43;;;;;;;;;;5020889;28;20401;-73
2022/04/16 06:47:38;;;;;;;11.10;6.18;;;;;;;;;;5018802;28;20035;-72
2022/04/16 06:50:05;;;;;;;10.57;6.60;;;;;;;;;;5017666;28;20025;-72
2022/04/16 06:52:32;;;;;;;9.27;6.63;;;;;;;;;;5018826;28;20028;-73
2022/04/16 06:54:58;;;;;;;11.90;6.82;;;;;;;;;;5020905;28;20101;-72
2022/04/16 06:57:24;;;;;;;7.25;5.68;;;;;;;;;;5016768;28;20029;-73
2022/04/16 06:59:51;;;;;;;8.07;5.38;;;;;;;;;;5000235;28;20168;-73
2022/04/16 07:02:17;;;;;;;12.57;7.63;;;;;;;;;;5000036;28;20034;-74
2022/04/16 07:04:43;;;;;;;12.18;7.80;;;;;;;;;;5004288;28;20030;-74
2022/04/16 07:07:09;;;;;;;11.45;6.25;;;;;;;;;;5012959;28;20026;-74
2022/04/16 07:09:38;;;;;;;13.68;7.15;;;;;;;;;;5012759;28;20041;-73
2022/04/16 07:12:11;;;;;;;4.90;3.92;;;;;;;;;;5000432;28;20474;-74
2022/04/16 07:14:38;;;;;;;4.15;3.30;;;;;;;;;;5012488;28;20110;-73
2022/04/16 07:17:05;;;;;;;7.80;3.60;;;;;;;;;;5007176;28;20041;-74
2022/04/16 07:19:32;;;;;;;5.18;3.55;;;;;;;;;;5007806;28;20718;-75
2022/04/16 07:21:58;;;;;;;4.53;3.20;;;;;;;;;;5008612;28;20030;-74
2022/04/16 07:24:25;;;;;;;4.85;3.60;;;;;;;;;;5000642;28;20543;-73
2022/04/16 07:26:55;;;;;;;3.88;3.08;;;;;;;;;;4998823;28;20148;-73
2022/04/16 07:29:21;;;;;;;5.50;3.00;;;;;;;;;;5000820;28;20033;-74
2022/04/16 07:31:48;;;;;;;6.80;3.50;;;;;;;;;;5000883;28;20509;-73
2022/04/16 07:34:14;;;;;;;5.63;3.42;;;;;;;;;;5008507;28;20033;-73
2022/04/16 07:36:42;;;;;;;9.68;3.92;;;;;;;;;;5019597;28;20112;-74
2022/04/16 07:39:08;;;;;;;6.03;3.90;;;;;;;;;;5018403;28;20513;-74
2022/04/16 07:41:34;;;;;;;4.03;3.47;;;;;;;;;;5018368;28;20032;-74
2022/04/16 07:44:03;;;;;;;6.63;3.78;;;;;;;;;;5019841;28;20050;-74
2022/04/16 07:46:30;;;;;;;5.50;4.05;;;;;;;;;;5018721;28;20021;-73
2022/04/16 07:48:57;;;;;;;5.10;3.63;;;;;;;;;;5003897;28;20042;-73
2022/04/16 07:51:23;;;;;;;4.20;3.33;;;;;;;;;;5014597;28;20072;-75
2022/04/16 07:53:49;;;;;;;8.05;4.50;;;;;;;;;;5015958;28;20030;-74
2022/04/16 07:56:16;;;;;;;8.10;4.93;;;;;;;;;;5002007;28;20489;-73
2022/04/16 07:58:42;;;;;;;8.18;5.82;;;;;;;;;;5007499;28;20037;-73
2022/04/16 08:01:08;;;;;;;10.02;6.85;;;;;;;;;;5011019;28;20029;-73
2022/04/16 08:03:34;;;;;;;9.00;6.32;;;;;;;;;;5000071;28;20485;-73
2022/04/16 08:06:00;;;;;;;11.32;7.47;;;;;;;;;;5014659;28;20029;-73
2022/04/16 08:08:26;;;;;;;15.85;7.85;;;;;;;;;;5018236;28;20435;-73
2022/04/16 08:10:53;;;;;;;12.73;7.90;;;;;;;;;;5019074;28;20031;-73
2022/04/16 08:13:22;;;;;;;11.18;7.70;;;;;;;;;;5015406;28;20021;-73
2022/04/16 08:15:48;;;;;;;15.80;8.20;;;;;;;;;;5010311;28;20147;-74
2022/04/16 08:18:15;;;;;;;14.70;7.75;;;;;;;;;;5030815;28;20024;-74
2022/04/16 08:20:41;;;;;;;15.73;8.25;;;;;;;;;;5010821;28;20042;-74
2022/04/16 08:23:07;;;;;;;10.38;6.95;;;;;;;;;;5021300;28;20588;-74
2022/04/16 08:28:01;;;;;;;10.88;8.38;;;;;;;;;;5001057;28;20037;-73
2022/04/16 08:30:27;;;;;;;12.02;7.90;;;;;;;;;;5010180;28;20065;-73
2022/04/16 08:32:54;;;;;;;12.55;8.38;;;;;;;;;;5001526;28;20367;-74
2022/04/16 08:35:20;;;;;;;11.73;8.15;;;;;;;;;;5001500;28;20022;-75
2022/04/16 08:37:48;;;;;;;16.88;8.45;;;;;;;;;;4999061;28;20033;-74
2022/04/16 08:40:14;;;;;;;11.05;7.68;;;;;;;;;;5036985;28;20045;-73
2022/04/16 08:42:45;;;;;;;11.85;8.48;;;;;;;;;;5004803;28;20036;-73
2022/04/16 08:45:12;;;;;;;12.13;8.68;;;;;;;;;;5005310;28;20030;-73
2022/04/16 08:47:41;;;;;;;13.13;7.97;;;;;;;;;;5010955;28;20037;-73
2022/04/16 08:50:09;;;;;;;13.10;8.18;;;;;;;;;;5017051;28;20032;-73
2022/04/16 08:52:36;;;;;;;11.80;8.18;;;;;;;;;;5013181;28;20390;-74
2022/04/16 08:55:10;;;;;;;14.15;8.07;;;;;;;;;;5022850;28;20034;-75
2022/04/16 08:57:45;;;;;;;12.27;7.55;;;;;;;;;;5012688;28;20044;-73
2022/04/16 09:00:13;;;;;;;10.85;7.18;;;;;;;;;;5010784;28;20407;-73
2022/04/16 09:02:49;;;;;;;12.23;7.70;;;;;;;;;;5021475;28;20033;-73
2022/04/16 09:05:19;;;;;;;14.57;8.50;;;;;;;;;;5016003;28;20376;-74
2022/04/16 09:07:46;;;;;;;14.32;8.20;;;;;;;;;;5009342;28;20021;-72
2022/04/16 09:10:12;;;;;;;9.95;6.10;;;;;;;;;;5009803;28;20061;-72
2022/04/16 09:12:52;;;;;;;7.35;5.25;;;;;;;;;;5011223;28;20061;-72
2022/04/16 09:15:19;;;;;;;8.70;6.03;;;;;;;;;;5016578;28;20759;-74
2022/04/16 09:17:56;;;;;;;13.00;6.70;;;;;;;;;;5002315;28;20124;-74
2022/04/16 09:20:22;;;;;;;10.63;7.18;;;;;;;;;;5013120;28;20096;-73
2022/04/16 09:22:49;;;;;;;16.10;7.93;;;;;;;;;;5018933;28;20033;-74
2022/04/16 09:25:16;;;;;;;10.82;6.85;;;;;;;;;;5002634;28;20501;-73
2022/04/16 09:27:43;;;;;;;10.38;6.38;;;;;;;;;;5001916;28;20061;-74
2022/04/16 09:30:10;;;;;;;10.68;6.25;;;;;;;;;;5005273;28;20516;-74
2022/04/16 09:32:46;;;;;;;9.50;6.90;;;;;;;;;;5018294;28;20021;-74
2022/04/16 09:35:25;;;;;;;8.15;6.70;;;;;;;;;;5010377;28;20037;-74
2022/04/16 09:37:54;;;;;;;14.00;7.53;;;;;;;;;;5018604;28;20018;-74
2022/04/16 09:40:21;;;;;;;11.82;6.30;;;;;;;;;;5009122;28;20497;-74
2022/04/16 09:42:57;;;;;;;9.95;6.25;;;;;;;;;;5016800;28;20030;-73
2022/04/16 09:45:23;;;;;;;10.68;6.90;;;;;;;;;;5021297;28;20029;-72
2022/04/16 09:47:53;;;;;;;7.35;5.55;;;;;;;;;;5021590;28;20026;-73
2022/04/16 09:50:20;;;;;;;9.13;6.75;;;;;;;;;;5001900;28;20068;-74
2022/04/16 09:52:50;;;;;;;10.27;5.97;;;;;;;;;;5000406;28;20109;-74
2022/04/16 09:55:18;;;;;;;11.95;5.88;;;;;;;;;;5002349;28;20058;-73
2022/04/16 09:57:44;;;;;;;9.68;6.30;;;;;;;;;;5000377;28;20091;-73
2022/04/16 10:00:11;;;;;;;13.52;7.60;;;;;;;;;;5014444;28;20083;-73
2022/04/16 10:02:38;;;;;;;11.45;7.60;;;;;;;;;;5017035;28;20468;-73
2022/04/16 10:05:08;;;;;;;13.57;6.93;;;;;;;;;;5001660;28;20044;-74
2022/04/16 10:07:34;;;;;;;12.85;7.20;;;;;;;;;;5010806;28;20036;-74
2022/04/16 10:10:03;;;;;;;14.05;7.25;;;;;;;;;;5012955;28;20105;-73
2022/04/16 10:15:19;;;;;;;14.90;6.88;;;;;;;;;;5007804;28;20088;-74
2022/04/16 10:17:50;;;;;;;15.13;7.63;;;;;;;;;;5016373;28;20082;-73
2022/04/16 10:20:20;;;;;;;21.83;8.43;;;;;;;;;;5019383;28;20041;-74
2022/04/16 10:22:54;;;;;;;11.90;7.05;;;;;;;;;;5019416;28;20089;-73
2022/04/16 10:25:40;;;;;;;12.23;7.25;;;;;;;;;;5012510;28;20026;-73
2022/04/16 10:28:12;;;;;;;12.60;7.00;;;;;;;;;;5013311;28;20053;-72
2022/04/16 10:30:39;;;;;;;17.77;9.05;;;;;;;;;;5011461;28;20082;-73
2022/04/16 10:33:19;;;;;;;14.95;8.05;;;;;;;;;;5015543;28;20723;-72
2022/04/16 10:35:58;;;;;;;14.50;7.78;;;;;;;;;;5002251;28;20562;-73
2022/04/16 10:38:38;;;;;;;10.13;6.55;;;;;;;;;;5001916;28;20033;-72
2022/04/16 10:41:14;;;;;;;10.45;7.45;;;;;;;;;;4999368;28;20752;-74
2022/04/16 10:43:40;;;;;;;12.50;7.10;;;;;;;;;;5000731;28;20203;-74
2022/04/16 10:46:08;;;;;;;13.95;7.97;;;;;;;;;;5008655;28;20124;-73
2022/04/16 10:48:35;;;;;;;13.80;7.78;;;;;;;;;;5021051;28;20039;-73
2022/04/16 10:51:02;;;;;;;13.57;7.70;;;;;;;;;;5020583;28;20517;-72
2022/04/16 10:53:33;;;;;;;8.40;6.25;;;;;;;;;;5017569;28;20032;-74
2022/04/16 10:56:20;;;;;;;12.38;6.45;;;;;;;;;;5020850;28;20033;-73
2022/04/16 10:58:48;;;;;;;11.07;7.18;;;;;;;;;;5020259;28;20552;-74
2022/04/16 11:01:24;;;;;;;15.55;7.88;;;;;;;;;;5013110;28;20033;-74
2022/04/16 11:03:51;;;;;;;10.68;7.68;;;;;;;;;;5012901;28;20087;-75
2022/04/16 11:06:21;;;;;;;11.88;7.30;;;;;;;;;;5019388;28;20083;-75
2022/04/16 11:08:47;;;;;;;9.43;5.65;;;;;;;;;;5004743;28;20861;-75
2022/04/16 11:11:15;;;;;;;7.88;5.45;;;;;;;;;;5003746;28;20037;-74
2022/04/16 11:13:42;;;;;;;8.45;4.20;;;;;;;;;;5015145;28;20390;-75
2022/04/16 11:16:09;;;;;;;5.57;3.70;;;;;;;;;;5020589;28;20048;-74
2022/04/16 11:18:42;;;;;;;8.07;3.08;;;;;;;;;;5000281;28;20034;-75
2022/04/16 11:21:12;;;;;;;9.30;4.68;;;;;;;;;;5009534;28;20033;-75
2022/04/16 11:23:45;;;;;;;6.47;4.22;;;;;;;;;;5000747;28;20026;-73
2022/04/16 11:34:28;;;;;;;16.00;8.20;;;;;;;;;;5016720;28;20037;-74
2022/04/16 11:36:55;;;;;;;12.82;8.30;;;;;;;;;;5016866;28;20034;-74
2022/04/16 11:39:22;;;;;;;15.32;8.25;;;;;;;;;;5008415;28;20037;-74
2022/04/16 11:41:52;;;;;;;16.02;7.45;;;;;;;;;;5017072;28;20457;-73
2022/04/16 11:44:31;;;;;;;16.55;7.43;;;;;;;;;;5016032;28;20535;-73
2022/04/16 11:46:57;;;;;;;11.25;5.65;;;;;;;;;;5010596;28;20026;-74
2022/04/16 11:49:26;;;;;;;11.98;6.55;;;;;;;;;;5020256;28;20536;-72
2022/04/16 11:51:52;;;;;;;14.15;6.65;;;;;;;;;;5000220;28;20034;-72
2022/04/16 11:54:28;;;;;;;14.63;7.78;;;;;;;;;;5000133;28;20018;-72
2022/04/16 11:56:55;;;;;;;8.93;5.00;;;;;;;;;;5000230;28;20052;-72
2022/04/16 11:59:28;;;;;;;15.98;5.60;;;;;;;;;;5009334;28;20064;-72
2022/04/16 12:02:05;;;;;;;10.80;5.72;;;;;;;;;;5013419;28;20029;-72
2022/04/16 12:04:36;;;;;;;17.67;6.20;;;;;;;;;;5018248;28;20033;-74
2022/04/16 12:07:03;;;;;;;9.32;5.80;;;;;;;;;;5015660;28;20021;-72
2022/04/16 12:09:33;;;;;;;9.63;5.30;;;;;;;;;;5016744;28;20033;-72
2022/04/16 12:12:03;;;;;;;10.70;4.80;;;;;;;;;;5006126;28;20021;-73
2022/04/16 12:14:29;;;;;;;6.78;3.00;;;;;;;;;;5010586;28;20559;-72
2022/04/16 12:17:02;;;;;;;5.30;3.13;;;;;;;;;;5003275;28;20048;-72
2022/04/16 12:19:30;;;;;;;4.68;3.15;;;;;;;;;;5037652;28;20036;-72
2022/04/16 12:21:57;;;;;;;8.05;3.45;;;;;;;;;;5023762;28;20028;-72
2022/04/16 12:24:27;;;;;;;6.97;4.30;;;;;;;;;;5019110;28;20123;-72
2022/04/16 12:26:53;;;;;;;4.70;3.33;;;;;;;;;;5017767;28;20894;-72
2022/04/16 12:29:26;;;;;;;10.60;4.43;;;;;;;;;;5013252;28;20038;-72
2022/04/16 12:31:59;;;;;;;5.40;4.70;;;;;;;;;;5006159;28;20033;-71
2022/04/16 12:34:25;;;;;;;5.55;3.75;;;;;;;;;;5017978;28;20033;-71
2022/04/16 12:36:52;;;;;;;6.15;3.78;;;;;;;;;;5012218;28;20037;-72
2022/04/16 12:39:18;;;;;;;5.68;3.78;;;;;;;;;;5022319;28;20783;-72
2022/04/16 12:41:44;;;;;;;5.03;3.20;;;;;;;;;;5007407;28;20132;-71
2022/04/16 12:44:10;;;;;;;6.15;3.58;;;;;;;;;;5006875;28;20418;-71
2022/04/16 12:46:36;;;;;;;7.03;3.88;;;;;;;;;;5025335;28;20030;-71
2022/04/16 12:49:03;;;;;;;5.78;4.13;;;;;;;;;;5022997;28;20197;-72
2022/04/16 12:51:29;;;;;;;10.88;5.90;;;;;;;;;;5012733;28;20045;-72
2022/04/16 12:53:55;;;;;;;7.72;5.55;;;;;;;;;;5023264;28;20024;-78
2022/04/16 12:56:22;;;;;;;8.25;5.57;;;;;;;;;;5017434;28;20204;-72
2022/04/16 12:58:48;;;;;;;5.30;4.35;;;;;;;;;;5016058;28;20109;-72
2022/04/16 13:01:14;;;;;;;7.15;3.55;;;;;;;;;;5005706;28;20038;-77
2022/04/16 13:03:40;;;;;;;6.05;3.55;;;;;;;;;;5018018;28;20491;-72
2022/04/16 13:06:06;;;;;;;5.35;3.58;;;;;;;;;;5025943;28;20025;-77
2022/04/16 13:08:32;;;;;;;25.20;5.32;;;;;;;;;;5015006;28;20044;-75
2022/04/16 13:10:58;;;;;;;7.50;3.80;;;;;;;;;;5005061;28;20052;-72
2022/04/16 13:13:25;;;;;;;10.60;5.30;;;;;;;;;;5004122;28;20795;-72
2022/04/16 13:15:51;;;;;;;15.52;9.25;;;;;;;;;;5032035;28;20493;-71
2022/04/16 13:18:17;;;;;;;12.35;6.93;;;;;;;;;;5042508;28;20041;-75
2022/04/16 13:20:43;;;;;;;9.20;5.95;;;;;;;;;;5045575;28;20398;-73
2022/04/16 13:23:10;;;;;;;8.25;6.07;;;;;;;;;;5033516;28;20017;-72
2022/04/16 13:25:36;;;;;;;24.65;9.32;;;;;;;;;;5023515;28;20025;-72
2022/04/16 13:28:02;;;;;;;12.88;6.75;;;;;;;;;;5025807;28;20034;-75
2022/04/16 13:30:28;;;;;;;13.00;6.70;;;;;;;;;;5024500;28;20118;-78
2022/04/16 13:32:55;;;;;;;11.20;7.13;;;;;;;;;;5022104;28;20040;-74
2022/04/16 13:35:21;;;;;;;9.52;5.05;;;;;;;;;;5022268;28;20033;-71
2022/04/16 13:37:48;;;;;;;8.25;4.65;;;;;;;;;;5022647;28;20083;-72
2022/04/16 13:42:59;;;;;;;6.53;4.85;;;;;;;;;;5021548;28;20049;-72
2022/04/16 13:45:25;;;;;;;7.63;3.85;;;;;;;;;;5021960;28;20033;-73
2022/04/16 13:47:51;;;;;;;6.93;4.70;;;;;;;;;;5021477;28;20056;-73
2022/04/16 13:50:18;;;;;;;15.32;8.85;;;;;;;;;;5019225;28;20022;-71
2022/04/16 13:52:46;;;;;;;12.88;7.65;;;;;;;;;;5017957;28;20052;-74
2022/04/16 13:55:13;;;;;;;9.18;4.90;;;;;;;;;;5021516;28;20649;-75
2022/04/16 13:57:39;;;;;;;10.43;5.93;;;;;;;;;;5021765;28;20044;-72
2022/04/16 14:00:05;;;;;;;7.47;5.15;;;;;;;;;;5021967;28;20041;-72
2022/04/16 14:02:31;;;;;;;6.80;4.90;;;;;;;;;;5019904;28;20030;-72
2022/04/16 14:07:43;;;;;;;13.60;5.25;;;;;;;;;;5021637;28;20057;-71
2022/04/16 14:10:09;;;;;;;10.93;5.25;;;;;;;;;;5005662;28;20040;-72
2022/04/16 14:12:35;;;;;;;7.60;4.80;;;;;;;;;;5013278;28;20500;-71
2022/04/16 14:15:02;;;;;;;8.95;5.35;;;;;;;;;;5026607;28;20040;-72
2022/04/16 14:17:28;;;;;;;8.48;6.00;;;;;;;;;;5041867;28;20051;-71
2022/04/16 14:19:54;;;;;;;5.75;4.80;;;;;;;;;;5037720;28;20043;-78
2022/04/16 14:22:20;;;;;;;5.55;4.70;;;;;;;;;;5040885;28;20108;-70
2022/04/16 14:24:46;;;;;;;7.70;4.78;;;;;;;;;;5040784;28;20028;-71
2022/04/16 14:27:13;;;;;;;5.75;5.18;;;;;;;;;;5041404;28;20737;-70
2022/04/16 14:29:39;;;;;;;6.80;4.97;;;;;;;;;;5041514;28;20039;-70
2022/04/16 14:32:06;;;;;;;9.25;5.40;;;;;;;;;;5040499;28;20025;-71
2022/04/16 14:34:32;;;;;;;8.10;5.15;;;;;;;;;;5041333;28;20595;-71
2022/04/16 14:36:59;;;;;;;11.93;5.55;;;;;;;;;;5040801;28;20039;-71
2022/04/16 14:39:25;;;;;;;9.10;5.47;;;;;;;;;;5035881;28;20045;-71
2022/04/16 14:41:51;;;;;;;10.25;5.28;;;;;;;;;;5020983;28;20037;-71
2022/04/16 14:44:18;;;;;;;5.60;5.00;;;;;;;;;;5021264;28;20068;-70
2022/04/16 14:46:44;;;;;;;7.63;5.57;;;;;;;;;;5002085;28;20453;-71
2022/04/16 14:49:11;;;;;;;8.75;4.78;;;;;;;;;;5015905;28;20603;-71
2022/04/16 14:51:40;;;;;;;7.90;5.32;;;;;;;;;;5020795;28;20543;-71
2022/04/16 14:54:07;;;;;;;11.88;5.97;;;;;;;;;;5020853;28;20422;-70
2022/04/16 14:56:33;;;;;;;7.05;5.57;;;;;;;;;;5017017;28;20033;-77
2022/04/16 14:59:01;;;;;;;7.97;5.40;;;;;;;;;;5010422;28;20037;-72
2022/04/16 15:01:27;;;;;;;8.40;5.20;;;;;;;;;;5013328;28;20033;-71
2022/04/16 15:03:53;;;;;;;8.18;5.40;;;;;;;;;;5012080;28;20029;-70
2022/04/16 15:06:19;;;;;;;10.75;5.78;;;;;;;;;;5016133;28;20036;-71
2022/04/16 15:08:46;;;;;;;5.32;4.82;;;;;;;;;;5009296;28;20506;-72